createdAt,value
2023-10-23T00:02:24.296Z,96308.22
2023-10-23T00:04:52.636Z,96307.94
2023-10-23T00:07:21.070Z,96302.76
2023-10-23T00:09:49.667Z,96299.42
2023-10-23T00:12:18.042Z,96300.16
2023-10-23T00:14:46.392Z,96296.33
2023-10-23T00:17:14.811Z,96298.08
2023-10-23T00:19:43.155Z,96299.86
2023-10-23T00:22:11.434Z,96300.86
2023-10-23T00:24:39.855Z,96304.46
2023-10-23T00:27:08.377Z,96303.88
2023-10-23T00:29:36.719Z,96300.74
2023-10-23T00:32:06.707Z,96298.31
2023-10-23T00:34:35.046Z,96289.88
2023-10-23T00:37:03.401Z,96288.09
2023-10-23T00:39:31.798Z,96292.78
2023-10-23T00:42:00.287Z,96308.41
2023-10-23T00:44:31.978Z,96309.85
2023-10-23T00:47:01.123Z,96306.60
2023-10-23T00:49:30.117Z,96305.38
2023-10-23T00:51:59.071Z,96305.74
2023-10-23T00:54:30.135Z,96306.36
2023-10-23T00:56:59.010Z,96309.98
2023-10-23T00:59:27.381Z,96306.51
2023-10-23T01:01:56.064Z,96304.82
2023-10-23T01:04:25.881Z,96304.19
2023-10-23T01:06:54.344Z,96305.71
2023-10-23T01:09:22.839Z,96305.21
2023-10-23T01:11:52.490Z,96307.57
2023-10-23T01:14:20.961Z,96307.52
2023-10-23T01:16:49.306Z,96307.02
2023-10-23T01:19:17.622Z,96308.33
2023-10-23T01:21:46.084Z,96303.23
2023-10-23T01:24:17.195Z,96305.14
2023-10-23T01:26:45.551Z,96313.73
2023-10-23T01:29:13.834Z,96317.33
2023-10-23T01:31:42.258Z,96313.53
2023-10-23T01:34:10.598Z,96313.86
2023-10-23T01:36:39.402Z,96306.77
2023-10-23T01:39:07.713Z,96307.35
2023-10-23T01:41:36.025Z,96308.13
2023-10-23T01:44:04.804Z,96307.06
2023-10-23T01:46:33.205Z,96305.48
2023-10-23T01:49:02.534Z,96311.71
2023-10-23T01:51:30.848Z,96312.63
2023-10-23T01:53:59.177Z,96314.61
2023-10-23T01:56:28.172Z,96317.20
2023-10-23T01:58:56.506Z,96316.62
2023-10-23T02:01:26.029Z,96319.05
2023-10-23T02:03:57.203Z,96319.13
2023-10-23T02:06:25.993Z,96318.60
2023-10-23T02:08:54.375Z,96324.16
2023-10-23T02:11:22.673Z,96322.92
2023-10-23T02:13:50.989Z,96325.45
2023-10-23T02:16:19.383Z,96327.14
2023-10-23T02:18:48.681Z,96324.69
2023-10-23T02:21:17.266Z,96331.63
2023-10-23T02:23:56.049Z,96333.67
2023-10-23T02:26:26.099Z,96335.73
2023-10-23T02:28:54.360Z,96340.26
2023-10-23T02:31:24.012Z,96340.89
2023-10-23T02:33:52.634Z,96339.52
2023-10-23T02:36:21.187Z,96343.83
2023-10-23T02:38:49.603Z,96340.16
2023-10-23T02:41:18.687Z,96340.67
2023-10-23T02:43:47.348Z,96341.46
2023-10-23T02:46:15.764Z,96335.34
2023-10-23T02:48:44.226Z,96341.81
2023-10-23T02:51:12.676Z,96343.88
2023-10-23T02:53:41.059Z,96347.29
2023-10-23T02:56:15.861Z,96352.70
2023-10-23T02:58:44.242Z,96351.84
2023-10-23T03:01:25.122Z,96351.50
2023-10-23T03:03:53.760Z,96354.23
2023-10-23T03:06:23.114Z,96355.21
2023-10-23T03:08:51.459Z,96361.33
2023-10-23T03:11:19.788Z,96360.90
2023-10-23T03:13:48.266Z,96362.63
2023-10-23T03:16:16.911Z,96369.43
2023-10-23T03:18:45.698Z,96376.02
2023-10-23T03:21:14.215Z,96377.13
2023-10-23T03:23:42.748Z,96374.48
2023-10-23T03:26:11.145Z,96376.66
2023-10-23T03:28:39.491Z,96375.88
2023-10-23T03:31:08.112Z,96377.65
2023-10-23T03:33:36.512Z,96378.17
2023-10-23T03:36:05.038Z,96379.68
2023-10-23T03:38:33.454Z,96385.27
2023-10-23T03:41:01.965Z,96384.28
2023-10-23T03:43:30.465Z,96383.38
2023-10-23T03:46:04.090Z,96386.55
2023-10-23T03:48:36.793Z,96383.70
2023-10-23T03:51:05.754Z,96387.60
2023-10-23T03:53:34.697Z,96381.86
2023-10-23T03:56:06.965Z,96382.85
2023-10-23T03:58:36.263Z,96383.39
2023-10-23T04:01:04.679Z,96381.58
2023-10-23T04:03:33.346Z,96383.36
2023-10-23T04:06:04.467Z,96381.79
2023-10-23T04:08:32.943Z,96385.58
2023-10-23T04:11:01.434Z,96387.19
2023-10-23T04:13:30.741Z,96386.63
2023-10-23T04:16:00.285Z,96388.58
2023-10-23T04:18:29.036Z,96388.30
2023-10-23T04:21:08.640Z,96385.55
2023-10-23T04:23:40.966Z,96385.54
2023-10-23T04:26:09.753Z,96387.69
2023-10-23T04:28:38.529Z,96386.11
2023-10-23T04:31:06.940Z,96391.09
2023-10-23T04:33:35.699Z,96394.57
2023-10-23T04:36:04.224Z,96394.61
2023-10-23T04:38:33.254Z,96398.99
2023-10-23T04:41:01.564Z,96399.33
2023-10-23T04:43:30.002Z,96399.84
2023-10-23T04:45:58.959Z,96397.10
2023-10-23T04:48:27.456Z,96403.08
2023-10-23T04:51:01.080Z,96409.59
2023-10-23T04:53:29.434Z,96415.49
2023-10-23T04:55:59.657Z,96416.52
2023-10-23T04:58:28.136Z,96426.73
2023-10-23T05:00:57.307Z,96429.30
2023-10-23T05:03:25.999Z,96437.35
2023-10-23T05:05:54.555Z,96442.42
2023-10-23T05:08:22.983Z,96446.83
2023-10-23T05:10:51.396Z,96447.70
2023-10-23T05:13:19.843Z,96448.96
2023-10-23T05:15:48.244Z,96452.45
2023-10-23T05:18:16.738Z,96457.14
2023-10-23T05:20:45.150Z,96459.07
2023-10-23T05:23:13.449Z,96461.19
2023-10-23T05:25:41.787Z,96464.59
2023-10-23T05:28:10.108Z,96471.37
2023-10-23T05:30:38.416Z,96475.92
2023-10-23T05:33:06.719Z,96474.30
2023-10-23T05:35:35.074Z,96475.14
2023-10-23T05:38:03.457Z,96473.23
2023-10-23T05:40:31.866Z,96474.13
2023-10-23T05:43:00.381Z,96477.16
2023-10-23T05:45:29.015Z,96476.95
2023-10-23T05:47:57.388Z,96487.08
2023-10-23T05:50:26.141Z,96488.41
2023-10-23T05:52:54.440Z,96492.71
2023-10-23T05:55:34.640Z,96497.55
2023-10-23T05:58:04.220Z,96501.77
2023-10-23T06:00:32.622Z,96500.67
2023-10-23T06:03:01.079Z,96502.16
2023-10-23T06:05:29.503Z,96505.58
2023-10-23T06:07:57.835Z,96507.64
2023-10-23T06:10:27.195Z,96507.77
2023-10-23T06:12:55.568Z,96505.45
2023-10-23T06:15:24.032Z,96503.98
2023-10-23T06:17:52.503Z,96503.04
2023-10-23T06:20:20.840Z,96506.86
2023-10-23T06:22:49.215Z,96508.33
2023-10-23T06:25:18.194Z,96511.74
2023-10-23T06:27:46.955Z,96514.77
2023-10-23T06:30:15.294Z,96518.28
2023-10-23T06:32:43.660Z,96524.09
2023-10-23T06:35:12.033Z,96522.30
2023-10-23T06:37:40.370Z,96525.16
2023-10-23T06:40:09.573Z,96527.08
2023-10-23T06:42:37.947Z,96530.19
2023-10-23T06:45:08.005Z,96529.84
2023-10-23T06:47:36.590Z,96529.92
2023-10-23T06:50:06.524Z,96533.61
2023-10-23T06:52:34.959Z,96537.38
2023-10-23T06:55:05.008Z,96536.38
2023-10-23T06:57:33.536Z,96535.45
2023-10-23T07:00:01.966Z,96539.44
2023-10-23T07:02:30.359Z,96541.34
2023-10-23T07:04:58.677Z,96548.50
2023-10-23T07:07:30.148Z,96551.27
2023-10-23T07:10:02.135Z,96549.33
2023-10-23T07:12:30.499Z,96553.20
2023-10-23T07:14:58.919Z,96559.47
2023-10-23T07:17:27.542Z,96554.49
2023-10-23T07:19:55.931Z,96555.95
2023-10-23T07:22:24.374Z,96556.52
2023-10-23T07:24:55.995Z,96554.34
2023-10-23T07:27:24.419Z,96555.50
2023-10-23T07:29:53.128Z,96558.24
2023-10-23T07:32:21.446Z,96555.84
2023-10-23T07:34:49.821Z,96556.91
2023-10-23T07:37:21.137Z,96559.30
2023-10-23T07:39:49.873Z,96567.05
2023-10-23T07:42:18.302Z,96562.19
2023-10-23T07:44:46.972Z,96556.11
2023-10-23T07:47:15.371Z,96557.48
2023-10-23T07:49:45.099Z,96556.16
2023-10-23T07:52:13.490Z,96549.89
2023-10-23T07:54:41.914Z,96546.05
2023-10-23T07:57:10.556Z,96548.20
2023-10-23T07:59:39.114Z,96548.08
2023-10-23T08:02:07.845Z,96549.13
2023-10-23T08:04:36.553Z,96548.08
2023-10-23T08:07:05.238Z,96550.93
2023-10-23T08:09:33.541Z,96553.52
2023-10-23T08:12:01.877Z,96553.71
2023-10-23T08:14:30.326Z,96552.98
2023-10-23T08:16:58.782Z,96555.21
2023-10-23T08:19:27.473Z,96550.71
2023-10-23T08:21:55.878Z,96553.52
2023-10-23T08:24:24.357Z,96557.73
2023-10-23T08:26:52.757Z,96565.25
2023-10-23T08:29:21.139Z,96562.61
2023-10-23T08:31:49.694Z,96565.45
2023-10-23T08:34:22.784Z,96564.54
2023-10-23T08:36:51.505Z,96557.75
2023-10-23T08:39:21.004Z,96557.89
2023-10-23T08:41:52.603Z,96555.09
2023-10-23T08:44:22.192Z,96549.43
2023-10-23T08:46:51.170Z,96557.07
2023-10-23T08:49:19.731Z,96559.21
2023-10-23T08:51:53.417Z,96557.55
2023-10-23T08:54:22.130Z,96556.66
2023-10-23T08:57:03.879Z,96556.25
2023-10-23T08:59:32.956Z,96557.69
2023-10-23T09:02:02.222Z,96565.79
2023-10-23T09:04:31.283Z,96564.30
2023-10-23T09:07:01.757Z,96561.23
2023-10-23T09:09:32.043Z,96561.19
2023-10-23T09:12:00.595Z,96555.10
2023-10-23T09:14:32.464Z,96549.07
2023-10-23T09:17:01.465Z,96542.19
2023-10-23T09:19:38.450Z,96541.95
2023-10-23T09:22:09.128Z,96541.67
2023-10-23T09:24:38.657Z,96536.55
2023-10-23T09:27:07.697Z,96534.36
2023-10-23T09:29:36.497Z,96533.83
2023-10-23T09:32:06.728Z,96542.07
2023-10-23T09:34:41.771Z,96538.23
2023-10-23T09:37:10.940Z,96535.69
2023-10-23T09:39:41.461Z,96530.30
2023-10-23T09:42:10.334Z,96522.96
2023-10-23T09:44:42.013Z,96515.27
2023-10-23T09:47:12.764Z,96515.00
2023-10-23T09:49:41.881Z,96512.56
2023-10-23T09:52:12.631Z,96508.95
2023-10-23T09:54:46.844Z,96502.19
2023-10-23T09:57:18.507Z,96499.14
2023-10-23T10:00:00.517Z,96495.66
2023-10-23T10:02:32.248Z,96495.08
2023-10-23T10:05:07.798Z,96492.14
2023-10-23T10:07:36.012Z,96487.58
2023-10-23T10:10:06.844Z,96486.02
2023-10-23T10:12:39.201Z,96481.32
2023-10-23T10:15:13.607Z,96479.61
2023-10-23T10:17:45.533Z,96476.80
2023-10-23T10:20:14.403Z,96476.11
2023-10-23T10:22:44.461Z,96469.34
2023-10-23T10:25:13.748Z,96468.88
2023-10-23T10:27:42.371Z,96471.29
2023-10-23T10:30:47.321Z,96469.66
2023-10-23T10:34:24.350Z,96468.47
2023-10-23T10:36:45.345Z,96468.23
2023-10-23T10:39:08.078Z,96469.75
2023-10-23T10:41:37.101Z,96464.88
2023-10-23T10:44:11.704Z,96466.36
2023-10-23T10:46:43.653Z,96468.34
2023-10-23T10:49:16.933Z,96467.70
2023-10-23T10:51:45.983Z,96458.20
2023-10-23T10:54:14.748Z,96455.52
2023-10-23T10:56:45.490Z,96456.36
2023-10-23T10:59:13.862Z,96457.55
2023-10-23T11:01:42.409Z,96458.35
2023-10-23T11:04:11.486Z,96454.16
2023-10-23T11:06:39.918Z,96452.54
2023-10-23T11:09:09.963Z,96446.45
2023-10-23T11:11:38.515Z,96445.80
2023-10-23T11:14:06.842Z,96449.64
2023-10-23T11:16:35.475Z,96446.83
2023-10-23T11:19:04.919Z,96442.60
2023-10-23T11:21:34.377Z,96439.61
2023-10-23T11:24:04.353Z,96434.46
2023-10-23T11:26:34.845Z,96435.48
2023-10-23T11:29:04.926Z,96434.73
2023-10-23T11:31:33.435Z,96430.61
2023-10-23T11:34:10.977Z,96435.02
2023-10-23T11:36:39.496Z,96437.32
2023-10-23T11:39:14.338Z,96437.94
2023-10-23T11:41:42.642Z,96437.14
2023-10-23T11:44:11.066Z,96433.98
2023-10-23T11:46:40.851Z,96433.54
2023-10-23T11:49:09.687Z,96431.90
2023-10-23T11:51:38.408Z,96432.76
2023-10-23T11:54:06.854Z,96429.70
2023-10-23T11:56:36.689Z,96429.48
2023-10-23T11:59:06.106Z,96429.43
2023-10-23T12:01:34.621Z,96427.62
2023-10-23T12:04:03.273Z,96425.29
2023-10-23T12:06:31.696Z,96421.81
2023-10-23T12:09:00.114Z,96422.47
2023-10-23T12:11:30.137Z,96419.55
2023-10-23T12:14:00.974Z,96418.54
2023-10-23T12:16:32.020Z,96411.95
2023-10-23T12:19:01.528Z,96411.81
2023-10-23T12:21:29.929Z,96407.08
2023-10-23T12:23:58.361Z,96403.38
2023-10-23T12:26:27.265Z,96396.98
2023-10-23T12:28:55.698Z,96396.62
2023-10-23T12:31:24.971Z,96396.94
2023-10-23T12:33:54.085Z,96391.80
2023-10-23T12:36:22.727Z,96386.64
2023-10-23T12:38:51.214Z,96389.78
2023-10-23T12:41:19.584Z,96392.81
2023-10-23T12:43:49.112Z,96395.83
2023-10-23T12:46:18.726Z,96402.55
2023-10-23T12:48:47.311Z,96404.61
2023-10-23T12:51:16.191Z,96407.44
2023-10-23T12:53:44.592Z,96412.98
2023-10-23T12:56:13.004Z,96421.21
2023-10-23T12:58:42.644Z,96419.23
2023-10-23T13:01:11.240Z,96416.59
2023-10-23T13:03:39.829Z,96416.95
2023-10-23T13:06:09.061Z,96416.66
2023-10-23T13:08:37.487Z,96407.08
2023-10-23T13:11:05.905Z,96401.95
2023-10-23T13:13:34.447Z,96403.00
2023-10-23T13:16:02.839Z,96404.85
2023-10-23T13:18:31.444Z,96401.85
2023-10-23T13:21:33.690Z,96403.15
2023-10-23T13:23:50.184Z,96404.98
2023-10-23T13:26:18.599Z,96398.48
2023-10-23T13:28:48.813Z,96394.09
2023-10-23T13:31:18.055Z,96389.86
2023-10-23T13:33:47.248Z,96390.67
2023-10-23T13:36:15.600Z,96393.85
2023-10-23T13:38:43.889Z,96394.35
2023-10-23T13:41:12.221Z,96398.54
2023-10-23T13:43:40.748Z,96399.48
2023-10-23T13:46:09.275Z,96399.20
2023-10-23T13:48:37.654Z,96401.62
2023-10-23T13:51:06.053Z,96405.39
2023-10-23T13:53:34.717Z,96407.98
2023-10-23T13:56:03.118Z,96407.04
2023-10-23T13:58:32.225Z,96410.85
2023-10-23T14:01:01.405Z,96404.39
2023-10-23T14:03:30.137Z,96399.73
2023-10-23T14:05:59.511Z,96402.99
2023-10-23T14:08:35.583Z,96401.10
2023-10-23T14:11:57.525Z,96401.69
2023-10-23T14:14:04.777Z,96405.65
2023-10-23T14:16:33.212Z,96405.15
2023-10-23T14:19:01.658Z,96407.92
2023-10-23T14:21:30.111Z,96406.84
2023-10-23T14:23:58.454Z,96408.13
2023-10-23T14:26:27.348Z,96403.46
2023-10-23T14:28:57.296Z,96397.46
2023-10-23T14:31:25.760Z,96402.05
2023-10-23T14:33:55.254Z,96404.42
2023-10-23T14:36:25.359Z,96406.70
2023-10-23T14:38:53.728Z,96406.30
2023-10-23T14:41:23.649Z,96409.20
2023-10-23T14:43:52.777Z,96405.92
2023-10-23T14:46:21.179Z,96404.08
2023-10-23T14:48:49.620Z,96406.45
2023-10-23T14:51:18.021Z,96407.37
2023-10-23T14:53:46.469Z,96411.86
2023-10-23T14:56:14.986Z,96408.76
2023-10-23T14:58:43.341Z,96407.11
2023-10-23T15:01:13.177Z,96402.05
2023-10-23T15:03:43.445Z,96403.70
2023-10-23T15:06:13.408Z,96404.83
2023-10-23T15:08:43.917Z,96410.39
2023-10-23T15:11:15.035Z,96411.79
2023-10-23T15:13:43.492Z,96413.20
2023-10-23T15:16:11.923Z,96411.33
2023-10-23T15:18:40.284Z,96411.17
2023-10-23T15:21:08.866Z,96413.33
2023-10-23T15:23:37.224Z,96412.86
2023-10-23T15:26:06.023Z,96413.19
2023-10-23T15:28:36.817Z,96418.26
2023-10-23T15:31:07.061Z,96414.23
2023-10-23T15:33:37.377Z,96415.89
2023-10-23T15:36:07.146Z,96418.52
2023-10-23T15:38:36.737Z,96420.36
2023-10-23T15:41:12.953Z,96418.30
2023-10-23T15:43:43.679Z,96420.61
2023-10-23T15:46:14.494Z,96419.15
2023-10-23T15:48:43.889Z,96418.36
2023-10-23T15:51:13.019Z,96421.45
2023-10-23T15:53:42.147Z,96422.39
2023-10-23T15:56:11.349Z,96422.17
2023-10-23T15:58:39.726Z,96419.66
2023-10-23T16:01:10.267Z,96420.84
2023-10-23T16:03:38.811Z,96425.39
2023-10-23T16:06:11.090Z,96430.44
2023-10-23T16:08:40.335Z,96437.42
2023-10-23T16:11:09.168Z,96440.48
2023-10-23T16:13:38.550Z,96441.44
2023-10-23T16:16:16.566Z,96440.85
2023-10-23T16:18:47.397Z,96443.95
2023-10-23T16:21:17.029Z,96444.02
2023-10-23T16:23:45.515Z,96444.72
2023-10-23T16:26:13.977Z,96447.27
2023-10-23T16:28:42.345Z,96451.95
2023-10-23T16:31:17.147Z,96451.50
2023-10-23T16:33:45.807Z,96452.67
2023-10-23T16:36:14.205Z,96451.80
2023-10-23T16:38:42.520Z,96453.77
2023-10-23T16:41:10.860Z,96450.44
2023-10-23T16:43:41.674Z,96444.84
2023-10-23T16:46:13.156Z,96443.13
2023-10-23T16:48:42.937Z,96444.88
2023-10-23T16:51:11.622Z,96446.14
2023-10-23T16:53:40.133Z,96446.95
2023-10-23T16:56:08.535Z,96448.48
2023-10-23T16:58:37.170Z,96447.31
2023-10-23T17:01:07.815Z,96444.06
2023-10-23T17:03:39.042Z,96442.42
2023-10-23T17:06:08.530Z,96442.48
2023-10-23T17:08:37.358Z,96439.36
2023-10-23T17:11:10.585Z,96438.44
2023-10-23T17:13:39.014Z,96442.50
2023-10-23T17:16:07.877Z,96444.16
2023-10-23T17:18:36.435Z,96442.23
2023-10-23T17:21:05.263Z,96441.98
2023-10-23T17:23:35.177Z,96438.23
2023-10-23T17:26:04.091Z,96437.30
2023-10-23T17:28:32.567Z,96438.89
2023-10-23T17:31:01.085Z,96433.99
2023-10-23T17:33:32.216Z,96431.67
2023-10-23T17:36:01.457Z,96430.60
2023-10-23T17:38:29.894Z,96430.87
2023-10-23T17:40:58.261Z,96434.37
2023-10-23T17:43:26.687Z,96434.18
2023-10-23T17:45:55.386Z,96438.00
2023-10-23T17:48:23.911Z,96437.77
2023-10-23T17:50:53.108Z,96444.11
2023-10-23T17:53:21.420Z,96449.48
2023-10-23T17:55:49.727Z,96449.88
2023-10-23T17:58:18.133Z,96449.95
2023-10-23T18:00:46.485Z,96449.27
2023-10-23T18:03:16.710Z,96446.63
2023-10-23T18:05:47.471Z,96449.98
2023-10-23T18:08:15.896Z,96451.64
2023-10-23T18:10:44.235Z,96454.02
2023-10-23T18:13:12.629Z,96456.64
2023-10-23T18:15:40.983Z,96456.58
2023-10-23T18:18:09.382Z,96456.47
2023-10-23T18:20:37.644Z,96456.98
2023-10-23T18:23:05.940Z,96455.49
2023-10-23T18:25:34.462Z,96451.55
2023-10-23T18:28:03.521Z,96452.09
2023-10-23T18:30:33.610Z,96456.11
2023-10-23T18:33:01.981Z,96459.68
2023-10-23T18:35:30.489Z,96456.82
2023-10-23T18:37:58.993Z,96455.66
2023-10-23T18:40:27.798Z,96456.56
2023-10-23T18:43:01.636Z,96450.91
2023-10-23T18:45:30.010Z,96447.04
2023-10-23T18:47:58.678Z,96444.96
2023-10-23T18:50:27.085Z,96451.00
2023-10-23T18:52:56.039Z,96450.26
2023-10-23T18:55:25.662Z,96457.17
2023-10-23T18:57:54.035Z,96456.48
2023-10-23T19:00:22.611Z,96452.33
2023-10-23T19:02:52.692Z,96455.31
2023-10-23T19:05:21.254Z,96453.98
2023-10-23T19:07:50.524Z,96453.01
2023-10-23T19:10:19.085Z,96448.88
2023-10-23T19:12:47.504Z,96449.30
2023-10-23T19:15:15.951Z,96451.96
2023-10-23T19:17:44.459Z,96451.21
2023-10-23T19:20:14.267Z,96455.84
2023-10-23T19:22:43.181Z,96456.67
2023-10-23T19:25:11.681Z,96457.86
2023-10-23T19:27:40.670Z,96463.21
2023-10-23T19:30:13.561Z,96462.90
2023-10-23T19:32:42.870Z,96466.42
2023-10-23T19:35:15.851Z,96468.44
2023-10-23T19:37:44.557Z,96474.27
2023-10-23T19:40:13.917Z,96470.39
2023-10-23T19:42:43.307Z,96467.10
2023-10-23T19:45:12.369Z,96470.35
2023-10-23T19:47:41.026Z,96469.95
2023-10-23T19:50:10.493Z,96463.97
2023-10-23T19:52:39.492Z,96461.98
2023-10-23T19:55:44.279Z,96458.49
2023-10-23T19:57:57.959Z,96459.00
2023-10-23T20:00:26.319Z,96457.99
2023-10-23T20:02:55.944Z,96457.27
2023-10-23T20:05:28.482Z,96458.61
2023-10-23T20:08:01.082Z,96460.41
2023-10-23T20:10:30.439Z,96454.81
2023-10-23T20:13:00.316Z,96451.95
2023-10-23T20:15:30.608Z,96452.99
2023-10-23T20:17:59.311Z,96455.60
2023-10-23T20:20:27.789Z,96452.00
2023-10-23T20:22:56.431Z,96451.45
2023-10-23T20:25:26.025Z,96460.35
2023-10-23T20:27:54.563Z,96463.64
2023-10-23T20:30:23.564Z,96470.42
2023-10-23T20:32:52.023Z,96472.06
2023-10-23T20:35:20.527Z,96473.77
2023-10-23T20:37:50.959Z,96467.89
2023-10-23T20:40:19.356Z,96463.28
2023-10-23T20:42:47.774Z,96460.21
2023-10-23T20:45:16.133Z,96456.36
2023-10-23T20:47:44.625Z,96447.19
2023-10-23T20:50:13.019Z,96444.16
2023-10-23T20:52:41.449Z,96439.23
2023-10-23T20:55:09.899Z,96436.89
2023-10-23T20:57:38.278Z,96430.08
2023-10-23T21:00:07.732Z,96425.52
2023-10-23T21:02:37.290Z,96422.35
2023-10-23T21:05:06.832Z,96415.62
2023-10-23T21:07:36.019Z,96412.55
2023-10-23T21:10:06.028Z,96412.88
2023-10-23T21:12:34.389Z,96413.64
2023-10-23T21:15:02.758Z,96415.30
2023-10-23T21:17:31.304Z,96417.98
2023-10-23T21:19:59.814Z,96423.42
2023-10-23T21:22:28.310Z,96425.74
2023-10-23T21:24:56.643Z,96434.39
2023-10-23T21:27:25.223Z,96433.72
2023-10-23T21:29:53.781Z,96434.68
2023-10-23T21:32:22.147Z,96428.75
2023-10-23T21:34:51.080Z,96429.04
2023-10-23T21:37:19.454Z,96426.66
2023-10-23T21:39:47.826Z,96425.20
2023-10-23T21:42:16.182Z,96420.33
2023-10-23T21:44:45.107Z,96414.67
2023-10-23T21:47:14.266Z,96412.61
2023-10-23T21:49:42.857Z,96408.41
2023-10-23T21:52:12.816Z,96406.30
2023-10-23T21:54:41.601Z,96412.29
2023-10-23T21:57:21.161Z,96408.33
2023-10-23T21:59:51.014Z,96406.10
2023-10-23T22:02:19.795Z,96412.88
2023-10-23T22:04:49.025Z,96418.36
2023-10-23T22:07:17.631Z,96417.14
2023-10-23T22:09:46.321Z,96410.82
2023-10-23T22:12:15.030Z,96409.64
2023-10-23T22:14:43.585Z,96411.86
2023-10-23T22:17:12.056Z,96415.71
2023-10-23T22:19:40.580Z,96411.86
2023-10-23T22:22:10.252Z,96410.45
2023-10-23T22:24:38.806Z,96408.86
2023-10-23T22:27:07.313Z,96399.49
2023-10-23T22:29:35.623Z,96392.17
2023-10-23T22:32:05.312Z,96393.63
2023-10-23T22:34:33.814Z,96387.41
2023-10-23T22:37:55.765Z,96378.37
2023-10-23T22:39:50.462Z,96375.95
2023-10-23T22:42:18.746Z,96377.99
2023-10-23T22:44:47.135Z,96377.83
2023-10-23T22:47:16.004Z,96377.44
2023-10-23T22:49:44.802Z,96374.39
2023-10-23T22:52:13.501Z,96370.01
2023-10-23T22:54:42.788Z,96368.61
2023-10-23T22:57:13.469Z,96369.61
2023-10-23T22:59:42.097Z,96368.02
2023-10-23T23:02:10.830Z,96369.61
2023-10-23T23:04:39.715Z,96364.05
2023-10-23T23:07:11.688Z,96364.84
2023-10-23T23:09:41.326Z,96365.92
2023-10-23T23:12:10.589Z,96372.96
2023-10-23T23:14:39.236Z,96380.80
2023-10-23T23:17:10.618Z,96381.09
2023-10-23T23:19:45.198Z,96386.20
2023-10-23T23:22:13.890Z,96382.61
2023-10-23T23:24:42.431Z,96385.56
2023-10-23T23:27:11.078Z,96382.72
2023-10-23T23:29:39.478Z,96378.11
2023-10-23T23:32:07.912Z,96380.23
2023-10-23T23:34:36.396Z,96381.25
2023-10-23T23:37:04.678Z,96378.77
2023-10-23T23:39:33.176Z,96382.64
2023-10-23T23:42:01.832Z,96376.59
2023-10-23T23:44:30.249Z,96372.30
2023-10-23T23:46:58.644Z,96365.62
2023-10-23T23:49:28.670Z,96363.55
2023-10-23T23:51:57.110Z,96359.39
2023-10-23T23:54:25.457Z,96350.00
2023-10-23T23:56:53.806Z,96342.20
2023-10-23T23:59:22.141Z,96342.52
